Time;durP1;ratioP1;P1;durP2;ratioP2;P2;SDS_P1;SDS_P2;PMS_P1;PMS_P2;Temp;Humidity;BMP_temperature;BMP_pressure;BME280_temperature;BME280_humidity;BME280_pressure;Samples;Min_cycle;Max_cycle;Signal;HPM_P1;HPM_P2
2021/05/03 00:00:56;;;;;;;7.05;1.50;;;12.90;96.70;;;;;;4931720;29;20110;-77
2021/05/03 00:03:24;;;;;;;4.80;1.45;;;12.80;96.70;;;;;;4930064;29;20098;-76
2021/05/03 00:05:57;;;;;;;6.18;1.55;;;12.80;96.70;;;;;;4933716;29;20059;-76
2021/05/03 00:08:25;;;;;;;4.78;1.42;;;12.80;96.70;;;;;;4929561;28;20051;-76
2021/05/03 00:14:37;;;;;;;5.47;1.73;;;12.60;96.70;;;;;;4944215;28;20027;-76
2021/05/03 00:17:06;;;;;;;5.30;1.50;;;12.50;96.70;;;;;;4914320;28;20042;-75
2021/05/03 00:19:36;;;;;;;8.48;1.40;;;12.30;96.70;;;;;;4933049;28;20067;-76
2021/05/03 00:22:04;;;;;;;4.63;1.17;;;12.20;96.70;;;;;;4929583;28;20157;-76
2021/05/03 00:24:31;;;;;;;4.78;1.38;;;12.20;96.70;;;;;;4950807;28;20039;-76
2021/05/03 00:26:59;;;;;;;3.72;1.33;;;12.20;96.70;;;;;;4931347;28;20222;-76
2021/05/03 00:29:27;;;;;;;5.90;1.38;;;12.20;96.70;;;;;;4949321;28;20444;-76
2021/05/03 00:31:55;;;;;;;4.10;1.20;;;12.10;96.70;;;;;;4933256;28;20039;-76
2021/05/03 00:34:24;;;;;;;5.15;1.45;;;12.20;96.70;;;;;;4947279;28;20493;-77
2021/05/03 00:36:53;;;;;;;5.78;1.42;;;12.20;96.70;;;;;;4917287;28;20560;-76
2021/05/03 00:39:20;;;;;;;3.53;1.40;;;12.10;96.70;;;;;;4937973;28;20426;-76
2021/05/03 00:45:30;;;;;;;4.78;1.30;;;12.00;96.70;;;;;;4946200;28;20047;-75
2021/05/03 00:47:59;;;;;;;6.05;1.30;;;11.90;96.70;;;;;;4946480;28;20136;-76
2021/05/03 00:50:29;;;;;;;6.82;1.50;;;12.00;96.70;;;;;;4930064;28;20394;-76
2021/05/03 00:52:58;;;;;;;5.93;1.38;;;11.90;96.70;;;;;;4929576;28;20051;-76
2021/05/03 00:55:27;;;;;;;7.53;1.48;;;12.00;96.70;;;;;;4913044;28;20134;-76
2021/05/03 00:57:55;;;;;;;3.95;1.23;;;11.90;96.70;;;;;;4930282;28;20074;-76
2021/05/03 01:00:26;;;;;;;3.55;1.25;;;11.90;96.70;;;;;;4915701;28;20095;-76
2021/05/03 01:02:54;;;;;;;5.25;1.30;;;11.90;96.70;;;;;;4928955;28;20434;-76
2021/05/03 01:05:29;;;;;;;6.43;1.65;;;11.90;96.70;;;;;;4930806;28;20052;-76
2021/05/03 01:08:04;;;;;;;7.35;1.55;;;11.80;96.70;;;;;;4942968;28;20050;-77
2021/05/03 01:10:32;;;;;;;3.80;1.27;;;11.90;96.70;;;;;;4951253;28;20413;-77
2021/05/03 01:13:00;;;;;;;2.42;1.08;;;11.90;96.70;;;;;;4948131;28;20504;-77
2021/05/03 01:15:28;;;;;;;5.10;1.60;;;11.80;96.70;;;;;;4927070;28;20040;-77
2021/05/03 01:17:58;;;;;;;8.75;1.48;;;11.80;96.70;;;;;;4948102;28;20708;-77
2021/05/03 01:20:28;;;;;;;5.00;2.17;;;11.70;96.70;;;;;;4930186;29;20055;-77
2021/05/03 01:22:58;;;;;;;5.40;1.05;;;11.70;96.70;;;;;;4927042;29;20049;-77
2021/05/03 01:25:30;;;;;;;4.70;1.20;;;11.70;96.70;;;;;;4946045;28;20193;-77
2021/05/03 01:27:59;;;;;;;4.50;1.40;;;11.70;96.70;;;;;;4913843;28;20062;-77
2021/05/03 01:30:31;;;;;;;4.68;1.20;;;11.70;96.70;;;;;;4939510;28;20035;-77
2021/05/03 01:33:04;;;;;;;7.07;1.67;;;11.70;96.70;;;;;;4947183;28;20051;-76
2021/05/03 01:35:42;;;;;;;3.92;1.23;;;11.70;96.70;;;;;;4931114;28;20035;-76
2021/05/03 01:38:24;;;;;;;2.83;1.02;;;11.70;96.70;;;;;;4914466;29;20076;-76
2021/05/03 01:40:56;;;;;;;3.20;1.10;;;11.70;96.70;;;;;;4927627;29;20126;-76
2021/05/03 01:43:27;;;;;;;4.47;1.25;;;11.60;96.70;;;;;;4939618;28;20517;-75
2021/05/03 01:45:58;;;;;;;5.85;1.38;;;11.60;96.70;;;;;;4921692;28;20102;-76
2021/05/03 01:48:30;;;;;;;4.57;1.27;;;11.60;96.70;;;;;;4921141;28;20085;-76
2021/05/03 01:51:00;;;;;;;2.78;1.20;;;11.70;96.70;;;;;;4943074;28;20050;-76
2021/05/03 01:53:31;;;;;;;5.32;1.30;;;11.70;96.70;;;;;;4925009;28;20494;-76
2021/05/03 01:56:01;;;;;;;4.38;1.30;;;11.50;96.70;;;;;;4927485;28;20140;-76
2021/05/03 01:58:31;;;;;;;6.80;1.60;;;11.40;96.70;;;;;;4911511;28;20079;-77
2021/05/03 02:01:01;;;;;;;4.82;1.38;;;11.40;96.70;;;;;;4928278;28;20094;-77
2021/05/03 02:03:31;;;;;;;4.38;1.17;;;11.40;96.70;;;;;;4926105;28;20055;-77
2021/05/03 02:06:01;;;;;;;4.53;1.33;;;11.40;96.70;;;;;;4943067;28;20053;-77
2021/05/03 02:08:33;;;;;;;5.80;1.17;;;11.30;96.70;;;;;;4927826;28;20043;-77
2021/05/03 02:11:03;;;;;;;3.42;1.02;;;11.30;96.70;;;;;;4944813;28;20079;-77
2021/05/03 02:13:34;;;;;;;5.38;1.55;;;11.30;96.70;;;;;;4944194;28;20058;-77
2021/05/03 02:16:05;;;;;;;4.88;1.17;;;11.30;96.70;;;;;;4942536;28;20053;-77
2021/05/03 02:18:34;;;;;;;4.22;1.38;;;11.30;96.70;;;;;;4929431;29;20627;-77
2021/05/03 02:21:05;;;;;;;9.68;2.95;;;11.30;96.70;;;;;;4923854;29;20064;-77
2021/05/03 02:23:36;;;;;;;4.75;1.30;;;11.30;96.70;;;;;;4944199;28;20047;-77
2021/05/03 02:26:06;;;;;;;4.75;1.25;;;11.30;96.70;;;;;;4926339;28;20062;-77
2021/05/03 02:28:35;;;;;;;4.30;1.08;;;11.20;96.70;;;;;;4925362;28;20039;-77
2021/05/03 02:31:05;;;;;;;5.00;1.15;;;11.20;96.70;;;;;;4930920;28;20135;-77
2021/05/03 02:33:34;;;;;;;6.82;1.30;;;11.20;96.70;;;;;;4926881;28;20047;-77
2021/05/03 02:36:05;;;;;;;6.65;1.67;;;11.20;96.70;;;;;;4924203;28;20137;-77
2021/05/03 02:38:37;;;;;;;8.10;3.00;;;11.20;96.70;;;;;;4926219;28;20049;-77
2021/05/03 02:41:07;;;;;;;3.65;1.00;;;11.20;96.70;;;;;;4925841;28;20520;-77
2021/05/03 02:43:37;;;;;;;7.72;1.58;;;11.20;96.70;;;;;;4947918;28;20500;-77
2021/05/03 02:46:07;;;;;;;3.72;1.13;;;11.10;96.70;;;;;;4940481;28;20043;-77
2021/05/03 02:48:37;;;;;;;4.47;1.30;;;11.10;96.70;;;;;;4940489;28;20039;-76
2021/05/03 02:51:07;;;;;;;3.55;1.13;;;11.00;96.70;;;;;;4925485;28;20527;-77
2021/05/03 02:53:38;;;;;;;8.68;1.30;;;11.00;96.70;;;;;;4926153;28;20506;-77
2021/05/03 02:56:07;;;;;;;2.38;1.00;;;11.10;96.70;;;;;;4928979;29;20846;-77
2021/05/03 02:58:35;;;;;;;5.75;1.23;;;11.10;96.70;;;;;;4921646;29;20061;-77
2021/05/03 03:01:03;;;;;;;3.88;1.35;;;11.00;96.70;;;;;;4921436;29;20047;-77
2021/05/03 03:03:31;;;;;;;2.60;1.20;;;11.00;96.70;;;;;;4932960;28;20051;-77
2021/05/03 03:05:59;;;;;;;5.35;1.38;;;11.00;96.70;;;;;;4943130;28;20039;-77
2021/05/03 03:08:27;;;;;;;3.08;1.00;;;11.00;96.70;;;;;;4939300;28;20047;-77
2021/05/03 03:10:56;;;;;;;5.80;1.30;;;11.10;96.70;;;;;;4927824;28;20157;-77
2021/05/03 03:13:24;;;;;;;3.90;1.00;;;11.10;96.70;;;;;;4945081;28;20074;-77
2021/05/03 03:15:52;;;;;;;4.90;1.20;;;11.10;96.70;;;;;;4941844;28;20039;-77
2021/05/03 03:18:20;;;;;;;4.32;1.40;;;11.10;96.70;;;;;;4941493;28;20047;-77
2021/05/03 03:20:48;;;;;;;6.68;1.42;;;11.00;96.70;;;;;;4943473;28;20047;-76
2021/05/03 03:23:16;;;;;;;4.35;1.40;;;11.00;96.70;;;;;;4925191;29;20043;-77
2021/05/03 03:25:44;;;;;;;6.75;1.42;;;10.90;96.70;;;;;;4941316;28;20421;-77
2021/05/03 03:28:15;;;;;;;5.72;1.15;;;10.80;96.70;;;;;;4924315;29;20054;-77
2021/05/03 03:30:45;;;;;;;2.92;1.17;;;10.70;96.70;;;;;;4909410;29;20077;-77
2021/05/03 03:33:13;;;;;;;3.60;1.00;;;10.70;96.70;;;;;;4927385;28;20085;-77
2021/05/03 03:36:00;;;;;;;5.55;1.23;;;10.70;96.70;;;;;;4910219;29;20047;-77
2021/05/03 03:38:27;;;;;;;5.55;1.20;;;10.60;96.70;;;;;;4944830;28;20042;-77
2021/05/03 03:41:22;;;;;;;4.78;1.05;;;10.50;96.70;;;;;;4923218;29;20054;-77
2021/05/03 03:43:51;;;;;;;4.70;1.45;;;10.50;96.70;;;;;;4937648;28;20080;-77
2021/05/03 03:46:20;;;;;;;5.93;1.02;;;10.40;96.70;;;;;;4919857;29;20051;-77
2021/05/03 03:48:49;;;;;;;4.25;0.90;;;10.30;96.70;;;;;;4943677;28;20045;-77
2021/05/03 03:51:54;;;;;;;3.45;0.90;;;10.40;96.70;;;;;;4942786;28;20036;-77
2021/05/03 03:54:22;;;;;;;5.63;1.30;;;10.40;96.70;;;;;;4926428;28;20163;-77
2021/05/03 03:56:51;;;;;;;3.88;1.15;;;10.50;96.70;;;;;;4944650;28;20095;-77
2021/05/03 03:59:22;;;;;;;4.50;1.65;;;10.50;96.70;;;;;;4924659;28;20036;-77
2021/05/03 04:01:52;;;;;;;4.28;1.20;;;10.50;96.70;;;;;;4907667;28;20415;-77
2021/05/03 04:04:26;;;;;;;5.43;1.35;;;10.50;96.70;;;;;;4941889;28;20063;-77
2021/05/03 04:07:01;;;;;;;2.60;1.05;;;10.50;96.70;;;;;;4910866;28;20050;-77
2021/05/03 04:10:18;;;;;;;4.10;1.40;;;10.50;96.70;;;;;;4923915;29;20047;-77
2021/05/03 04:26:47;;;;;;;2.55;0.70;;;10.40;96.70;;;;;;4929187;28;20051;-77
2021/05/03 04:29:15;;;;;;;4.60;1.35;;;10.50;96.70;;;;;;4943678;28;20085;-77
2021/05/03 04:31:45;;;;;;;6.78;1.50;;;10.40;96.70;;;;;;4943212;28;20600;-77
2021/05/03 04:34:13;;;;;;;4.95;1.08;;;10.30;96.70;;;;;;4928508;28;20039;-77
2021/05/03 04:36:41;;;;;;;3.10;1.33;;;10.50;96.70;;;;;;4933784;28;20134;-77
2021/05/03 04:39:09;;;;;;;4.57;1.40;;;10.50;96.70;;;;;;4929086;28;20626;-77
2021/05/03 04:41:37;;;;;;;3.67;1.38;;;10.40;96.70;;;;;;4940346;28;20066;-77
2021/05/03 04:44:06;;;;;;;4.97;1.20;;;10.40;96.70;;;;;;4928771;28;20046;-77
2021/05/03 04:46:33;;;;;;;4.20;1.23;;;10.40;96.70;;;;;;4925824;28;20488;-78
2021/05/03 04:49:02;;;;;;;3.45;0.88;;;10.40;96.70;;;;;;4930910;28;20142;-76
2021/05/03 04:51:30;;;;;;;2.55;1.42;;;10.70;96.70;;;;;;4950157;28;20537;-76
2021/05/03 04:53:58;;;;;;;3.58;1.38;;;10.50;96.70;;;;;;4942178;28;20504;-76
2021/05/03 04:56:26;;;;;;;4.90;1.67;;;10.70;96.70;;;;;;4943770;28;20047;-76
2021/05/03 04:58:53;;;;;;;4.10;1.15;;;10.90;96.70;;;;;;4941424;28;20058;-77
2021/05/03 05:01:21;;;;;;;6.05;1.30;;;11.10;96.70;;;;;;4915718;29;20051;-76
2021/05/03 05:03:49;;;;;;;7.55;1.33;;;11.10;96.70;;;;;;4940594;28;20047;-77
2021/05/03 05:06:18;;;;;;;5.10;1.42;;;11.20;96.70;;;;;;4942432;28;20048;-77
2021/05/03 05:08:45;;;;;;;4.10;1.73;;;11.30;96.70;;;;;;4939239;28;20042;-77
2021/05/03 05:11:13;;;;;;;4.15;1.23;;;11.30;96.70;;;;;;4948512;28;20039;-76
2021/05/03 05:13:41;;;;;;;3.65;1.23;;;11.30;96.70;;;;;;4914346;28;20054;-77
2021/05/03 05:16:09;;;;;;;4.00;1.55;;;11.40;96.70;;;;;;4927525;28;20763;-76
2021/05/03 05:18:37;;;;;;;7.63;1.35;;;11.20;96.70;;;;;;4928489;28;20075;-76
2021/05/03 05:21:05;;;;;;;2.58;1.27;;;11.20;96.70;;;;;;4927411;28;20557;-74
2021/05/03 05:23:34;;;;;;;4.35;1.20;;;11.30;96.70;;;;;;4935855;28;20138;-73
2021/05/03 05:26:02;;;;;;;4.53;1.48;;;11.40;96.70;;;;;;4926631;28;20051;-73
2021/05/03 05:28:30;;;;;;;3.05;1.25;;;11.30;96.70;;;;;;4929945;28;20047;-74
2021/05/03 05:30:57;;;;;;;3.08;1.10;;;11.40;96.70;;;;;;4911688;28;20058;-74
2021/05/03 05:33:26;;;;;;;5.22;1.17;;;11.60;96.70;;;;;;4928566;28;20047;-74
2021/05/03 05:35:54;;;;;;;5.75;1.40;;;11.70;96.70;;;;;;4924180;28;20078;-74
2021/05/03 05:38:21;;;;;;;5.43;1.30;;;11.70;96.70;;;;;;4923684;28;20472;-75
2021/05/03 05:40:50;;;;;;;3.80;0.93;;;11.80;96.70;;;;;;4926720;28;20051;-74
2021/05/03 05:43:18;;;;;;;4.30;1.27;;;11.80;96.70;;;;;;4933913;28;20039;-77
2021/05/03 05:45:46;;;;;;;7.75;1.67;;;12.00;96.70;;;;;;4927108;28;20409;-76
2021/05/03 05:48:14;;;;;;;6.53;1.45;;;12.00;96.70;;;;;;4944090;28;20603;-76
2021/05/03 05:50:41;;;;;;;4.00;1.20;;;12.10;96.70;;;;;;4942629;28;20047;-76
2021/05/03 05:53:09;;;;;;;4.55;1.27;;;12.10;96.70;;;;;;4925096;28;20070;-76
2021/05/03 05:55:37;;;;;;;4.35;1.27;;;12.20;96.70;;;;;;4940654;28;20054;-76
2021/05/03 05:58:06;;;;;;;2.42;1.10;;;12.20;96.70;;;;;;4928856;28;20568;-77
2021/05/03 06:00:34;;;;;;;3.90;1.50;;;12.40;96.70;;;;;;4926672;28;20075;-77
2021/05/03 06:03:03;;;;;;;4.97;1.33;;;12.40;96.70;;;;;;4927671;28;20567;-77
2021/05/03 06:05:31;;;;;;;5.38;1.77;;;12.40;96.70;;;;;;4938986;28;20541;-76
2021/05/03 06:07:59;;;;;;;5.38;1.48;;;12.50;96.70;;;;;;4911593;28;20045;-76
2021/05/03 06:10:27;;;;;;;4.30;1.00;;;12.60;96.70;;;;;;4904786;28;20091;-76
2021/05/03 06:12:54;;;;;;;6.03;1.50;;;12.70;96.70;;;;;;4927564;28;20501;-75
2021/05/03 06:15:23;;;;;;;5.25;1.40;;;12.80;96.70;;;;;;4921953;28;20044;-77
2021/05/03 06:17:51;;;;;;;6.25;1.58;;;12.80;96.70;;;;;;4925232;28;20126;-77
2021/05/03 06:20:20;;;;;;;6.57;1.60;;;12.70;96.70;;;;;;4924108;28;20043;-77
2021/05/03 06:22:48;;;;;;;8.63;2.30;;;12.70;96.70;;;;;;4943484;28;20115;-76
2021/05/03 06:25:16;;;;;;;3.55;1.33;;;12.70;96.70;;;;;;4942951;28;20133;-77
2021/05/03 06:27:44;;;;;;;5.63;1.58;;;12.80;96.70;;;;;;4930421;28;20481;-77
2021/05/03 06:30:12;;;;;;;3.78;1.27;;;12.90;96.70;;;;;;4912837;28;20110;-77
2021/05/03 06:32:41;;;;;;;4.00;1.50;;;13.00;96.70;;;;;;4941604;28;20388;-77
2021/05/03 06:35:09;;;;;;;4.15;1.65;;;13.00;96.70;;;;;;4925876;28;20043;-77
2021/05/03 06:37:37;;;;;;;4.32;1.60;;;13.10;96.70;;;;;;4949220;28;20035;-77
2021/05/03 06:40:07;;;;;;;3.10;1.38;;;13.20;96.70;;;;;;4954513;28;20056;-77
2021/05/03 06:42:35;;;;;;;2.85;1.30;;;13.30;96.70;;;;;;4943693;28;21035;-77
2021/05/03 06:45:04;;;;;;;5.72;1.50;;;13.30;96.70;;;;;;4909842;28;20201;-77
2021/05/03 06:47:32;;;;;;;3.50;1.60;;;13.30;96.70;;;;;;4914936;28;20071;-77
2021/05/03 06:50:01;;;;;;;3.90;1.52;;;13.40;96.70;;;;;;4946450;28;20294;-77
2021/05/03 06:52:29;;;;;;;6.22;1.90;;;13.50;96.70;;;;;;4929389;29;20035;-77
2021/05/03 06:54:57;;;;;;;4.82;1.35;;;13.50;96.70;;;;;;4930454;29;20122;-77
2021/05/03 06:57:25;;;;;;;8.73;1.50;;;13.60;96.70;;;;;;4946515;28;20043;-75
2021/05/03 06:59:53;;;;;;;6.25;1.35;;;13.70;96.70;;;;;;4928374;28;20031;-75
2021/05/03 07:02:22;;;;;;;3.45;1.10;;;13.80;96.70;;;;;;4924903;28;20067;-74
2021/05/03 07:04:50;;;;;;;4.07;1.55;;;13.80;96.70;;;;;;4945812;28;20066;-74
2021/05/03 07:07:22;;;;;;;4.53;1.25;;;13.90;96.70;;;;;;4936831;28;20039;-75
2021/05/03 07:09:50;;;;;;;3.38;1.02;;;14.10;96.70;;;;;;4931575;28;20423;-74
2021/05/03 07:12:20;;;;;;;6.68;1.63;;;14.20;96.70;;;;;;4927462;28;20042;-74
2021/05/03 07:14:49;;;;;;;6.15;1.52;;;14.30;96.70;;;;;;4912168;28;20047;-74
2021/05/03 07:17:17;;;;;;;3.88;1.40;;;14.40;96.70;;;;;;4911454;28;20043;-75
2021/05/03 07:19:46;;;;;;;8.77;1.70;;;14.40;96.70;;;;;;4931001;29;20051;-75
2021/05/03 07:22:14;;;;;;;4.72;1.25;;;14.60;96.70;;;;;;4942234;28;20556;-75
2021/05/03 07:24:45;;;;;;;5.10;1.77;;;14.70;96.70;;;;;;4947261;28;20079;-74
2021/05/03 07:27:12;;;;;;;7.45;1.70;;;14.70;96.70;;;;;;4924905;28;20050;-74
2021/05/03 07:29:40;;;;;;;7.38;1.77;;;14.80;96.70;;;;;;4934681;28;20138;-75
2021/05/03 07:32:08;;;;;;;7.53;1.70;;;14.80;96.70;;;;;;4926539;28;20054;-76
2021/05/03 07:34:38;;;;;;;6.65;1.73;;;14.80;96.70;;;;;;4928046;28;20138;-75
2021/05/03 07:37:06;;;;;;;5.45;1.70;;;14.90;96.70;;;;;;4940355;28;20564;-75
2021/05/03 07:39:34;;;;;;;5.30;1.55;;;14.90;96.70;;;;;;4946179;28;20493;-75
2021/05/03 07:42:04;;;;;;;4.97;1.73;;;15.00;96.70;;;;;;4943367;28;20035;-74
2021/05/03 07:44:52;;;;;;;4.32;1.65;;;15.00;96.70;;;;;;4938461;28;20051;-75
2021/05/03 07:47:20;;;;;;;5.35;1.60;;;15.10;96.70;;;;;;4940008;28;20051;-75
2021/05/03 07:49:47;;;;;;;6.57;1.50;;;15.20;96.70;;;;;;4924440;29;20043;-75
2021/05/03 07:52:15;;;;;;;7.32;2.15;;;15.30;96.70;;;;;;4922796;29;20050;-74
2021/05/03 07:54:44;;;;;;;5.05;1.10;;;15.40;96.70;;;;;;4945537;28;20058;-75
2021/05/03 07:57:13;;;;;;;5.95;1.50;;;15.50;96.70;;;;;;4930904;29;20154;-75
2021/05/03 07:59:41;;;;;;;7.05;1.65;;;15.60;96.70;;;;;;4921472;29;20134;-75
2021/05/03 08:02:09;;;;;;;6.05;2.05;;;15.70;96.70;;;;;;4927872;28;20046;-77
2021/05/03 08:04:38;;;;;;;6.78;1.20;;;15.80;96.70;;;;;;4921143;29;20052;-76
2021/05/03 08:07:06;;;;;;;6.25;1.50;;;15.90;96.70;;;;;;4923090;29;20117;-78
2021/05/03 08:09:34;;;;;;;5.85;1.23;;;16.00;96.70;;;;;;4903899;29;20570;-78
2021/05/03 08:12:02;;;;;;;5.85;1.50;;;16.10;96.70;;;;;;4908574;29;20134;-77
2021/05/03 08:14:31;;;;;;;5.28;1.42;;;16.10;96.70;;;;;;4911759;29;20440;-78
2021/05/03 08:17:04;;;;;;;5.90;1.50;;;16.10;96.70;;;;;;4925017;29;20040;-77
2021/05/03 08:19:32;;;;;;;7.85;1.23;;;16.20;96.70;;;;;;4921950;29;20048;-78
2021/05/03 08:22:01;;;;;;;7.32;1.38;;;16.30;96.70;;;;;;4923717;29;20068;-77
2021/05/03 08:24:30;;;;;;;7.90;1.65;;;16.30;95.90;;;;;;4925777;29;20255;-78
2021/05/03 08:26:59;;;;;;;8.68;1.65;;;16.40;96.70;;;;;;4926194;29;20044;-77
2021/05/03 08:29:27;;;;;;;8.93;1.77;;;16.50;96.50;;;;;;4925950;29;20031;-76
2021/05/03 08:31:57;;;;;;;9.48;2.10;;;16.50;95.00;;;;;;4916980;29;20494;-75
2021/05/03 08:34:25;;;;;;;7.90;2.03;;;16.40;95.10;;;;;;4906230;29;20371;-77
2021/05/03 08:36:56;;;;;;;7.63;1.55;;;16.40;94.70;;;;;;4929644;28;20409;-77
2021/05/03 08:39:25;;;;;;;6.22;1.88;;;16.60;94.10;;;;;;4923548;29;20044;-76
2021/05/03 08:41:56;;;;;;;6.90;1.60;;;16.60;94.50;;;;;;4926834;29;20043;-77
2021/05/03 08:44:26;;;;;;;5.85;1.40;;;16.70;95.10;;;;;;4921203;29;20523;-76
2021/05/03 08:46:56;;;;;;;7.05;1.40;;;16.80;92.80;;;;;;4925710;29;20062;-75
2021/05/03 08:54:44;;;;;;;6.93;1.58;;;16.80;91.10;;;;;;4928240;29;20590;-74
2021/05/03 08:57:14;;;;;;;6.28;1.65;;;16.90;90.90;;;;;;4927647;29;20044;-74
2021/05/03 08:59:42;;;;;;;4.22;1.27;;;17.10;91.70;;;;;;4924786;29;20052;-76
2021/05/03 09:02:13;;;;;;;4.80;1.40;;;17.30;90.00;;;;;;4924549;29;20056;-75
2021/05/03 09:04:43;;;;;;;6.55;1.30;;;17.40;88.80;;;;;;4922976;29;20066;-74
2021/05/03 09:07:13;;;;;;;5.53;1.30;;;17.50;90.20;;;;;;4923048;29;20582;-75
2021/05/03 09:09:43;;;;;;;7.93;1.08;;;17.50;88.40;;;;;;4937381;28;20146;-75
2021/05/03 09:12:14;;;;;;;7.85;1.60;;;17.60;87.00;;;;;;4927189;29;20051;-75
2021/05/03 09:14:52;;;;;;;7.03;1.50;;;17.60;87.80;;;;;;4923140;29;20040;-75
2021/05/03 09:17:35;;;;;;;7.00;1.42;;;17.70;87.40;;;;;;4919333;29;20042;-75
2021/05/03 09:20:06;;;;;;;3.67;1.20;;;17.90;87.80;;;;;;4923696;29;20075;-75
2021/05/03 09:22:48;;;;;;;9.10;1.58;;;17.80;86.80;;;;;;4918464;29;21458;-74
2021/05/03 09:25:25;;;;;;;6.45;1.15;;;17.60;88.20;;;;;;4925325;29;20138;-75
2021/05/03 09:28:11;;;;;;;4.10;0.95;;;17.50;87.70;;;;;;4922291;29;20048;-75
2021/05/03 09:30:42;;;;;;;5.30;1.63;;;17.50;88.00;;;;;;4910876;29;20051;-75
2021/05/03 09:33:30;;;;;;;4.50;1.23;;;17.60;87.50;;;;;;4926664;29;20047;-74
2021/05/03 09:36:01;;;;;;;5.95;1.70;;;17.90;86.10;;;;;;4909382;29;20441;-75
2021/05/03 09:38:38;;;;;;;4.10;1.30;;;18.10;86.20;;;;;;4922922;29;20040;-75
2021/05/03 09:41:19;;;;;;;5.55;1.02;;;18.20;84.60;;;;;;4922375;29;20048;-75
2021/05/03 09:43:49;;;;;;;3.67;1.15;;;18.50;84.50;;;;;;4926332;29;20488;-75
2021/05/03 09:46:35;;;;;;;5.15;1.00;;;18.50;84.30;;;;;;4922472;29;20063;-75
2021/05/03 09:49:08;;;;;;;4.22;1.23;;;18.50;84.60;;;;;;4926869;29;20462;-75
2021/05/03 09:51:38;;;;;;;4.82;0.98;;;18.40;84.40;;;;;;4923929;29;20039;-75
2021/05/03 09:54:10;;;;;;;4.88;1.15;;;18.40;85.40;;;;;;4926107;29;20111;-75
2021/05/03 09:56:57;;;;;;;3.13;0.82;;;18.50;84.80;;;;;;4933460;28;20406;-75
2021/05/03 09:59:29;;;;;;;5.15;0.98;;;18.20;82.40;;;;;;4926940;29;20048;-75
2021/05/03 10:02:02;;;;;;;3.47;0.80;;;18.20;82.00;;;;;;4919561;29;20116;-75
2021/05/03 10:04:33;;;;;;;5.15;1.05;;;18.00;81.00;;;;;;4933237;28;20056;-75
2021/05/03 10:07:01;;;;;;;5.78;0.70;;;18.20;81.80;;;;;;4922956;29;20094;-76
2021/05/03 10:09:30;;;;;;;6.05;0.90;;;18.50;81.70;;;;;;4905100;29;20470;-75
2021/05/03 10:11:58;;;;;;;5.18;1.10;;;18.60;83.00;;;;;;4921738;29;20082;-75
2021/05/03 10:14:28;;;;;;;4.15;1.23;;;18.60;83.40;;;;;;4922009;29;20095;-75
2021/05/03 10:16:57;;;;;;;4.13;0.90;;;18.80;82.20;;;;;;4926968;29;20565;-77
2021/05/03 10:19:26;;;;;;;7.05;0.90;;;18.90;79.20;;;;;;4921029;29;20493;-75
2021/05/03 10:21:56;;;;;;;3.40;0.80;;;19.10;80.90;;;;;;4908968;29;20405;-75
2021/05/03 10:24:25;;;;;;;3.20;0.82;;;19.10;81.10;;;;;;4924504;29;20036;-76
2021/05/03 10:26:53;;;;;;;4.20;1.10;;;19.10;79.30;;;;;;4913753;29;20051;-76
2021/05/03 10:29:29;;;;;;;2.42;0.70;;;19.10;79.20;;;;;;4926911;29;20046;-75
2021/05/03 10:31:59;;;;;;;3.63;1.15;;;19.20;78.70;;;;;;4922558;29;20039;-75
2021/05/03 10:34:46;;;;;;;2.58;0.70;;;19.20;79.30;;;;;;4915447;29;20040;-75
2021/05/03 10:37:47;;;;;;;;;;;19.20;80.30;;;;;;4924706;29;20059;-76
2021/05/03 10:40:43;;;;;;;3.42;0.80;;;19.30;80.20;;;;;;4932806;28;19931;-75
2021/05/03 10:43:14;;;;;;;3.83;1.20;;;19.50;79.60;;;;;;4922181;29;20044;-75
2021/05/03 10:46:08;;;;;;;5.75;0.88;;;19.60;78.90;;;;;;4920044;29;20040;-75
2021/05/03 10:48:40;;;;;;;1.73;0.90;;;19.60;77.90;;;;;;4919828;29;20047;-77
2021/05/03 10:51:51;;;;;;;3.72;0.73;;;19.60;77.80;;;;;;4937063;28;20516;-75
2021/05/03 10:54:46;;;;;;;3.15;0.80;;;19.50;77.30;;;;;;4926346;29;20106;-75
2021/05/03 10:57:38;;;;;;;4.10;0.65;;;19.60;76.40;;;;;;4924689;29;20036;-76
2021/05/03 11:00:12;;;;;;;5.25;0.70;;;19.70;77.60;;;;;;4935063;28;20055;-76
2021/05/03 11:02:45;;;;;;;5.00;0.80;;;19.70;77.60;;;;;;4919869;29;20256;-76
2021/05/03 11:05:25;;;;;;;2.58;0.70;;;19.80;77.30;;;;;;4924274;29;20051;-76
2021/05/03 11:08:29;;;;;;;3.15;0.77;;;19.80;76.70;;;;;;4924284;29;20071;-76
2021/05/03 11:11:11;;;;;;;5.25;1.15;;;20.00;78.40;;;;;;4924380;29;20055;-76
2021/05/03 11:13:48;;;;;;;4.07;0.82;;;20.10;78.10;;;;;;4923053;28;20039;-76
2021/05/03 11:16:52;;;;;;;3.95;1.02;;;20.10;76.80;;;;;;4922195;29;20083;-76
2021/05/03 11:19:53;;;;;;;5.40;0.90;;;20.30;77.10;;;;;;4923178;29;20050;-76
2021/05/03 11:22:25;;;;;;;2.08;0.75;;;20.40;77.00;;;;;;4921547;29;20042;-75
2021/05/03 11:25:00;;;;;;;4.88;1.00;;;20.70;77.10;;;;;;4924195;29;20118;-75
2021/05/03 11:27:38;;;;;;;3.58;0.80;;;20.70;74.10;;;;;;4919795;29;20048;-75
2021/05/03 11:30:13;;;;;;;4.05;1.00;;;20.70;75.10;;;;;;4925100;29;20046;-75
2021/05/03 11:32:41;;;;;;;4.75;1.27;;;20.70;76.60;;;;;;4923502;29;20052;-75
2021/05/03 11:40:41;;;;;;;4.88;1.00;;;21.00;76.20;;;;;;4924033;29;20051;-76
2021/05/03 11:46:07;;;;;;;4.47;1.20;;;21.20;75.80;;;;;;4920122;29;20058;-76
2021/05/03 11:48:36;;;;;;;5.05;0.93;;;21.30;76.40;;;;;;4943227;28;20425;-76
2021/05/03 11:51:06;;;;;;;4.00;1.00;;;21.40;76.50;;;;;;4924004;29;20043;-75
2021/05/03 11:53:38;;;;;;;2.88;0.80;;;21.60;75.40;;;;;;4921851;29;20044;-76
2021/05/03 11:56:17;;;;;;;3.75;0.82;;;21.70;73.90;;;;;;4923478;29;20040;-76
2021/05/03 11:58:45;;;;;;;4.43;1.25;;;21.70;73.60;;;;;;4923606;29;20055;-76
2021/05/03 12:01:15;;;;;;;3.42;1.10;;;21.90;73.40;;;;;;4920898;29;20133;-76
2021/05/03 12:03:44;;;;;;;2.97;0.95;;;21.90;73.40;;;;;;4906565;29;20604;-80
2021/05/03 12:06:31;;;;;;;4.57;1.02;;;21.70;75.70;;;;;;4917255;29;20166;-79
2021/05/03 12:08:59;;;;;;;3.75;0.85;;;21.70;74.70;;;;;;4921521;29;20237;-79
2021/05/03 12:11:27;;;;;;;4.95;0.90;;;21.90;73.70;;;;;;4923195;29;20067;-80
2021/05/03 12:13:57;;;;;;;5.47;1.20;;;22.00;74.70;;;;;;4924766;29;20446;-83
2021/05/03 12:16:33;;;;;;;2.92;0.90;;;21.90;74.30;;;;;;4924275;29;20048;-80
2021/05/03 12:19:01;;;;;;;;;;;22.10;73.10;;;;;;4927685;29;20277;-83
2021/05/03 12:21:29;;;;;;;7.18;0.93;;;21.90;73.50;;;;;;4921885;29;19997;-80
2021/05/03 12:24:10;;;;;;;2.88;0.80;;;22.00;73.40;;;;;;4929419;29;20032;-80
2021/05/03 12:26:49;;;;;;;2.80;1.13;;;22.20;72.70;;;;;;4924903;29;20253;-79
2021/05/03 12:29:17;;;;;;;3.90;0.80;;;22.30;72.50;;;;;;4922118;29;20047;-77
2021/05/03 12:31:46;;;;;;;3.80;0.95;;;22.40;75.00;;;;;;4922401;29;20043;-77
2021/05/03 12:34:19;;;;;;;2.78;1.00;;;22.50;74.30;;;;;;4922246;29;20036;-77
2021/05/03 12:37:11;;;;;;;4.38;1.35;;;22.50;74.00;;;;;;4920087;29;20134;-78
2021/05/03 12:40:03;;;;;;;2.80;0.82;;;22.40;74.00;;;;;;4920251;29;20462;-78
2021/05/03 12:42:33;;;;;;;3.40;1.08;;;22.20;74.70;;;;;;4927416;29;20069;-78
2021/05/03 12:45:19;;;;;;;3.17;0.90;;;22.00;74.20;;;;;;4924031;29;20206;-78
2021/05/03 12:47:57;;;;;;;3.95;1.05;;;22.20;73.00;;;;;;4925142;29;20048;-78
2021/05/03 12:50:33;;;;;;;4.78;1.00;;;22.40;72.40;;;;;;4931983;29;20070;-78
2021/05/03 12:53:19;;;;;;;4.28;0.70;;;22.50;72.10;;;;;;4921803;29;20050;-78
2021/05/03 13:03:47;;;;;;;3.03;1.00;;;22.70;71.10;;;;;;4922867;29;20054;-79
2021/05/03 13:28:02;;;;;;;3.05;0.90;;;22.70;71.10;;;;;;4929275;28;20613;-78
2021/05/03 13:29:09;;;;;;;4.35;1.10;;;23.00;70.30;;;;;;4942675;28;20047;-77
2021/05/03 13:31:38;;;;;;;3.33;1.10;;;23.10;69.90;;;;;;4928342;28;20043;-78
2021/05/03 13:34:07;;;;;;;3.33;1.00;;;23.30;68.90;;;;;;4925581;28;20265;-78
2021/05/03 13:36:39;;;;;;;4.03;1.00;;;23.40;67.20;;;;;;4928091;28;20252;-78
2021/05/03 13:39:08;;;;;;;3.80;0.90;;;23.60;67.10;;;;;;4948671;28;20117;-78
2021/05/03 13:41:36;;;;;;;2.80;0.73;;;23.70;67.00;;;;;;4945209;28;20134;-78
2021/05/03 13:44:05;;;;;;;2.45;0.90;;;24.10;67.80;;;;;;4946051;28;20795;-77
2021/05/03 13:46:33;;;;;;;2.05;0.80;;;24.30;67.90;;;;;;4946159;28;20122;-78
2021/05/03 13:49:02;;;;;;;2.85;0.88;;;24.30;66.50;;;;;;4945743;28;20080;-78
2021/05/03 13:51:29;;;;;;;3.53;0.90;;;24.50;67.40;;;;;;4940557;28;20501;-78
2021/05/03 13:53:59;;;;;;;2.55;0.60;;;24.30;65.50;;;;;;4928677;28;20039;-79
2021/05/03 13:56:26;;;;;;;2.45;0.88;;;24.60;65.60;;;;;;4942710;28;20052;-78
2021/05/03 13:58:54;;;;;;;4.03;1.05;;;24.60;65.10;;;;;;4935513;28;20358;-78
2021/05/03 14:01:22;;;;;;;2.75;0.65;;;24.30;63.80;;;;;;4929701;28;20113;-78
2021/05/03 14:03:49;;;;;;;5.22;0.95;;;24.20;63.80;;;;;;4929529;28;20074;-78
2021/05/03 14:06:18;;;;;;;1.48;0.63;;;24.40;64.20;;;;;;4942902;28;20039;-78
2021/05/03 14:08:45;;;;;;;5.68;1.15;;;24.60;63.10;;;;;;4930623;28;20043;-78
2021/05/03 14:11:14;;;;;;;2.38;0.50;;;24.70;63.00;;;;;;4940135;28;20466;-79
2021/05/03 14:13:43;;;;;;;2.97;0.60;;;24.60;63.10;;;;;;4927937;28;20047;-79